PWSweather.com
Personal Weather Stations
Station Observations
WAREHAM1
West Wareham, MA 02576

West Wareham, MA 02576

Lat: 41.7961059, Lon: -70.775612

Elevation: 88

Station Type: Davis Vantage Vue

http://www.gateway2capecod.com

High Low Average
Temperature 85.7°F29.8°C 71.0°F21.7°C 76.9°F24.9°C
Dew Point 76.0°F24.4°C 69.2°F20.7°C 72.7°F22.6°C
Winds 2.3 mph 3.7 kmh Calm Calm 1.0 mph S1.6 kmh S
Wind Gusts 4.0 mph6.4 kmh -- 1.0 mph1.6 kmh
Humidity 97% 70% 88%
Pressure 30.05 in1017.6 mb 29.96 in1014.6 mb -
Precipitation 0.00 in0.0 mm - -
Hour Temp Dew Point Humidity Winds Wind Gusts Pressure Precip Precip Rate Daily Precip Total
12:00 AM 72.4°F22.4°C 71.2°F21.8°C 96% 2.4 mph S3.9 kmh S 3.0 mph4.8 kmh 30.01 in1016.3 mb 0.00 in0.0 mm 0.00 in/hr0.0 mm/hr 0.00 in0.0 mm
12:10 AM 72.6°F22.6°C 71.4°F21.9°C 96% 1.4 mph S2.3 kmh S 2.0 mph3.2 kmh 30.02 in1016.6 mb 0.00 in0.0 mm 0.00 in/hr0.0 mm/hr 0.00 in0.0 mm
12:20 AM 72.6°F22.6°C 71.4°F21.9°C 96% 1.7 mph WSW2.7 kmh WSW 4.0 mph6.4 kmh 30.02 in1016.6 mb 0.00 in0.0 mm 0.00 in/hr0.0 mm/hr 0.00 in0.0 mm
12:30 AM 72.6°F22.6°C 71.4°F21.9°C 96% 2.2 mph SW3.5 kmh SW 3.0 mph4.8 kmh 30.02 in1016.6 mb 0.00 in0.0 mm 0.00 in/hr0.0 mm/hr 0.00 in0.0 mm
12:40 AM 72.6°F22.6°C 71.4°F21.9°C 96% 1.6 mph SSW2.6 kmh SSW 2.0 mph3.2 kmh 30.02 in1016.6 mb 0.00 in0.0 mm 0.00 in/hr0.0 mm/hr 0.00 in0.0 mm
12:50 AM 72.6°F22.6°C 71.4°F21.9°C 96% 0.9 mph SSW1.4 kmh SSW 2.0 mph3.2 kmh 30.02 in1016.6 mb 0.00 in0.0 mm 0.00 in/hr0.0 mm/hr 0.00 in0.0 mm
01:00 AM 72.7°F22.6°C 71.5°F21.9°C 96% 1.5 mph WSW2.4 kmh WSW 3.0 mph4.8 kmh 30.02 in1016.6 mb 0.00 in0.0 mm 0.00 in/hr0.0 mm/hr 0.00 in0.0 mm
01:10 AM 72.7°F22.6°C 71.5°F21.9°C 96% 1.1 mph S1.8 kmh S 2.0 mph3.2 kmh 30.02 in1016.6 mb 0.00 in0.0 mm 0.00 in/hr0.0 mm/hr 0.00 in0.0 mm
01:20 AM 72.8°F22.7°C 71.6°F22.0°C 96% 1.4 mph SSW2.3 kmh SSW 2.0 mph3.2 kmh 30.01 in1016.3 mb 0.00 in0.0 mm 0.00 in/hr0.0 mm/hr 0.00 in0.0 mm
01:30 AM 72.8°F22.7°C 71.6°F22.0°C 96% 1.1 mph SSW1.8 kmh SSW 2.0 mph3.2 kmh 30.01 in1016.3 mb 0.00 in0.0 mm 0.00 in/hr0.0 mm/hr 0.00 in0.0 mm
01:40 AM 72.8°F22.7°C 71.6°F22.0°C 96% 0.3 mph SSW0.5 kmh SSW 1.0 mph1.6 kmh 30.01 in1016.3 mb 0.00 in0.0 mm 0.00 in/hr0.0 mm/hr 0.00 in0.0 mm
01:50 AM 72.8°F22.7°C 71.6°F22.0°C 96% 1.7 mph SSW2.7 kmh SSW 2.0 mph3.2 kmh 30.02 in1016.6 mb 0.00 in0.0 mm 0.00 in/hr0.0 mm/hr 0.00 in0.0 mm
02:00 AM 72.8°F22.7°C 71.6°F22.0°C 96% 1.5 mph SSW2.4 kmh SSW 2.0 mph3.2 kmh 30.01 in1016.3 mb 0.00 in0.0 mm 0.00 in/hr0.0 mm/hr 0.00 in0.0 mm
02:10 AM 72.8°F22.7°C 71.6°F22.0°C 96% 0.9 mph SW1.4 kmh SW 2.0 mph3.2 kmh 30.02 in1016.6 mb 0.00 in0.0 mm 0.00 in/hr0.0 mm/hr 0.00 in0.0 mm
02:20 AM 72.8°F22.7°C 71.6°F22.0°C 96% 1.2 mph SSW1.9 kmh SSW 2.0 mph3.2 kmh 30.02 in1016.6 mb 0.00 in0.0 mm 0.00 in/hr0.0 mm/hr 0.00 in0.0 mm
02:30 AM 72.8°F22.7°C 71.6°F22.0°C 96% 0.6 mph SSW1.0 kmh SSW 2.0 mph3.2 kmh 30.02 in1016.6 mb 0.00 in0.0 mm 0.00 in/hr0.0 mm/hr 0.00 in0.0 mm
02:40 AM 72.8°F22.7°C 71.6°F22.0°C 96% 0.7 mph SSW1.1 kmh SSW 2.0 mph3.2 kmh 30.01 in1016.3 mb 0.00 in0.0 mm 0.00 in/hr0.0 mm/hr 0.00 in0.0 mm
02:50 AM 72.8°F22.7°C 71.6°F22.0°C 96% 0.6 mph SSW1.0 kmh SSW 2.0 mph3.2 kmh 30.01 in1016.3 mb 0.00 in0.0 mm 0.00 in/hr0.0 mm/hr 0.00 in0.0 mm
03:00 AM 72.8°F22.7°C 71.6°F22.0°C 96% Calm Calm -- 30.01 in1016.3 mb 0.00 in0.0 mm 0.00 in/hr0.0 mm/hr 0.00 in0.0 mm
03:10 AM 72.7°F22.6°C 71.5°F21.9°C 96% Calm Calm -- 30.02 in1016.6 mb 0.00 in0.0 mm 0.00 in/hr0.0 mm/hr 0.00 in0.0 mm
03:20 AM 72.7°F22.6°C 71.5°F21.9°C 96% 0.3 mph SSW0.5 kmh SSW 1.0 mph1.6 kmh 30.02 in1016.6 mb 0.00 in0.0 mm 0.00 in/hr0.0 mm/hr 0.00 in0.0 mm
03:30 AM 72.7°F22.6°C 71.5°F21.9°C 96% 0.1 mph SSW0.2 kmh SSW 1.0 mph1.6 kmh 30.01 in1016.3 mb 0.00 in0.0 mm 0.00 in/hr0.0 mm/hr 0.00 in0.0 mm
03:40 AM 72.7°F22.6°C 71.5°F21.9°C 96% Calm Calm -- 30.01 in1016.3 mb 0.00 in0.0 mm 0.00 in/hr0.0 mm/hr 0.00 in0.0 mm
03:50 AM 72.7°F22.6°C 71.5°F21.9°C 96% 0.4 mph SSW0.6 kmh SSW 1.0 mph1.6 kmh 30.01 in1016.3 mb 0.00 in0.0 mm 0.00 in/hr0.0 mm/hr 0.00 in0.0 mm
04:00 AM 72.6°F22.6°C 71.4°F21.9°C 96% Calm Calm -- 30.01 in1016.3 mb 0.00 in0.0 mm 0.00 in/hr0.0 mm/hr 0.00 in0.0 mm
04:10 AM 72.6°F22.6°C 71.4°F21.9°C 96% 0.2 mph SSW0.3 kmh SSW 1.0 mph1.6 kmh 30.02 in1016.6 mb 0.00 in0.0 mm 0.00 in/hr0.0 mm/hr 0.00 in0.0 mm
04:20 AM 72.6°F22.6°C 71.4°F21.9°C 96% 0.7 mph SSW1.1 kmh SSW 1.0 mph1.6 kmh 30.02 in1016.6 mb 0.00 in0.0 mm 0.00 in/hr0.0 mm/hr 0.00 in0.0 mm
04:30 AM 72.5°F22.5°C 71.3°F21.8°C 96% Calm Calm -- 30.02 in1016.6 mb 0.00 in0.0 mm 0.00 in/hr0.0 mm/hr 0.00 in0.0 mm
04:40 AM 72.4°F22.4°C 71.2°F21.8°C 96% 0.1 mph SSW0.2 kmh SSW 1.0 mph1.6 kmh 30.02 in1016.6 mb 0.00 in0.0 mm 0.00 in/hr0.0 mm/hr 0.00 in0.0 mm
04:50 AM 72.4°F22.4°C 71.2°F21.8°C 96% 0.1 mph S0.2 kmh S 1.0 mph1.6 kmh 30.02 in1016.6 mb 0.00 in0.0 mm 0.00 in/hr0.0 mm/hr 0.00 in0.0 mm
05:00 AM 72.4°F22.4°C 71.2°F21.8°C 96% 0.3 mph S0.5 kmh S -- 30.02 in1016.6 mb 0.00 in0.0 mm 0.00 in/hr0.0 mm/hr 0.00 in0.0 mm
05:10 AM 72.4°F22.4°C 71.2°F21.8°C 96% Calm Calm -- 30.03 in1016.9 mb 0.00 in0.0 mm 0.00 in/hr0.0 mm/hr 0.00 in0.0 mm
05:20 AM 72.4°F22.4°C 71.2°F21.8°C 96% Calm Calm -- 30.03 in1016.9 mb 0.00 in0.0 mm 0.00 in/hr0.0 mm/hr 0.00 in0.0 mm
05:30 AM 72.4°F22.4°C 71.5°F21.9°C 97% 0.8 mph SSW1.3 kmh SSW 1.0 mph1.6 kmh 30.03 in1016.9 mb 0.00 in0.0 mm 0.00 in/hr0.0 mm/hr 0.00 in0.0 mm
05:40 AM 72.4°F22.4°C 71.5°F21.9°C 97% 0.1 mph SSW0.2 kmh SSW -- 30.04 in1017.3 mb 0.00 in0.0 mm 0.00 in/hr0.0 mm/hr 0.00 in0.0 mm
05:50 AM 72.4°F22.4°C 71.5°F21.9°C 97% Calm Calm -- 30.03 in1016.9 mb 0.00 in0.0 mm 0.00 in/hr0.0 mm/hr 0.00 in0.0 mm
06:00 AM 72.4°F22.4°C 71.2°F21.8°C 96% Calm Calm -- 30.04 in1017.3 mb 0.00 in0.0 mm 0.00 in/hr0.0 mm/hr 0.00 in0.0 mm
06:10 AM 72.3°F22.4°C 71.4°F21.9°C 97% 0.1 mph SSW0.2 kmh SSW 1.0 mph1.6 kmh 30.04 in1017.3 mb 0.00 in0.0 mm 0.00 in/hr0.0 mm/hr 0.00 in0.0 mm
06:20 AM 72.2°F22.3°C 71.0°F21.7°C 96% 0.2 mph S0.3 kmh S 1.0 mph1.6 kmh 30.04 in1017.3 mb 0.00 in0.0 mm 0.00 in/hr0.0 mm/hr 0.00 in0.0 mm
06:30 AM 72.2°F22.3°C 71.3°F21.8°C 97% 0.3 mph S0.5 kmh S 1.0 mph1.6 kmh 30.04 in1017.3 mb 0.00 in0.0 mm 0.00 in/hr0.0 mm/hr 0.00 in0.0 mm
06:40 AM 72.3°F22.4°C 71.4°F21.9°C 97% 0.2 mph SSW0.3 kmh SSW 1.0 mph1.6 kmh 30.05 in1017.6 mb 0.00 in0.0 mm 0.00 in/hr0.0 mm/hr 0.00 in0.0 mm
06:50 AM 72.3°F22.4°C 71.4°F21.9°C 97% 0.3 mph SSW0.5 kmh SSW 1.0 mph1.6 kmh 30.05 in1017.6 mb 0.00 in0.0 mm 0.00 in/hr0.0 mm/hr 0.00 in0.0 mm
07:00 AM 72.3°F22.4°C 71.4°F21.9°C 97% 0.1 mph S0.2 kmh S -- 30.05 in1017.6 mb 0.00 in0.0 mm 0.00 in/hr0.0 mm/hr 0.00 in0.0 mm
07:10 AM 72.4°F22.4°C 71.5°F21.9°C 97% 0.1 mph S0.2 kmh S -- 30.05 in1017.6 mb 0.00 in0.0 mm 0.00 in/hr0.0 mm/hr 0.00 in0.0 mm
07:20 AM 72.5°F22.5°C 71.6°F22.0°C 97% 0.1 mph SSW0.2 kmh SSW 1.0 mph1.6 kmh 30.05 in1017.6 mb 0.00 in0.0 mm 0.00 in/hr0.0 mm/hr 0.00 in0.0 mm
07:30 AM 72.6°F22.6°C 71.7°F22.1°C 97% Calm Calm -- 30.05 in1017.6 mb 0.00 in0.0 mm 0.00 in/hr0.0 mm/hr 0.00 in0.0 mm
07:40 AM 72.8°F22.7°C 71.9°F22.2°C 97% Calm Calm -- 30.05 in1017.6 mb 0.00 in0.0 mm 0.00 in/hr0.0 mm/hr 0.00 in0.0 mm
07:50 AM 72.9°F22.7°C 72.0°F22.2°C 97% Calm Calm -- 30.05 in1017.6 mb 0.00 in0.0 mm 0.00 in/hr0.0 mm/hr 0.00 in0.0 mm
08:00 AM 73.0°F22.8°C 72.1°F22.3°C 97% Calm Calm -- 30.04 in1017.3 mb 0.00 in0.0 mm 0.00 in/hr0.0 mm/hr 0.00 in0.0 mm
08:10 AM 73.2°F22.9°C 72.3°F22.4°C 97% Calm Calm -- 30.05 in1017.6 mb 0.00 in0.0 mm 0.00 in/hr0.0 mm/hr 0.00 in0.0 mm
08:20 AM 73.3°F22.9°C 72.4°F22.4°C 97% Calm Calm -- 30.04 in1017.3 mb 0.00 in0.0 mm 0.00 in/hr0.0 mm/hr 0.00 in0.0 mm
08:30 AM 73.5°F23.1°C 72.3°F22.4°C 96% Calm Calm -- 30.04 in1017.3 mb 0.00 in0.0 mm 0.00 in/hr0.0 mm/hr 0.00 in0.0 mm
08:40 AM 73.7°F23.2°C 72.5°F22.5°C 96% Calm Calm -- 30.04 in1017.3 mb 0.00 in0.0 mm 0.00 in/hr0.0 mm/hr 0.00 in0.0 mm
08:50 AM 73.9°F23.3°C 72.7°F22.6°C 96% Calm Calm -- 30.04 in1017.3 mb 0.00 in0.0 mm 0.00 in/hr0.0 mm/hr 0.00 in0.0 mm
09:00 AM 74.0°F23.3°C 72.8°F22.7°C 96% Calm Calm -- 30.04 in1017.3 mb 0.00 in0.0 mm 0.00 in/hr0.0 mm/hr 0.00 in0.0 mm
09:10 AM 74.1°F23.4°C 72.9°F22.7°C 96% Calm Calm -- 30.04 in1017.3 mb 0.00 in0.0 mm 0.00 in/hr0.0 mm/hr 0.00 in0.0 mm
09:20 AM 74.4°F23.6°C 72.8°F22.7°C 95% Calm Calm -- 30.04 in1017.3 mb 0.00 in0.0 mm 0.00 in/hr0.0 mm/hr 0.00 in0.0 mm
09:30 AM 74.9°F23.8°C 73.4°F23.0°C 95% 0.5 mph SW0.8 kmh SW 1.0 mph1.6 kmh 30.04 in1017.3 mb 0.00 in0.0 mm 0.00 in/hr0.0 mm/hr 0.00 in0.0 mm
09:40 AM 75.3°F24.1°C 73.5°F23.1°C 94% 0.3 mph SW0.5 kmh SW 1.0 mph1.6 kmh 30.04 in1017.3 mb 0.00 in0.0 mm 0.00 in/hr0.0 mm/hr 0.00 in0.0 mm
09:50 AM 76.0°F24.4°C 73.5°F23.1°C 92% 1.0 mph S1.6 kmh S 2.0 mph3.2 kmh 30.04 in1017.3 mb 0.00 in0.0 mm 0.00 in/hr0.0 mm/hr 0.00 in0.0 mm
10:00 AM 76.8°F24.9°C 73.6°F23.1°C 90% 0.4 mph WNW0.6 kmh WNW 1.0 mph1.6 kmh 30.03 in1016.9 mb 0.00 in0.0 mm 0.00 in/hr0.0 mm/hr 0.00 in0.0 mm
10:10 AM 77.5°F25.3°C 73.7°F23.2°C 88% 0.6 mph S1.0 kmh S 1.0 mph1.6 kmh 30.03 in1016.9 mb 0.00 in0.0 mm 0.00 in/hr0.0 mm/hr 0.00 in0.0 mm
10:20 AM 78.6°F25.9°C 74.4°F23.6°C 87% 0.2 mph S0.3 kmh S -- 30.03 in1016.9 mb 0.00 in0.0 mm 0.00 in/hr0.0 mm/hr 0.00 in0.0 mm
10:30 AM 79.6°F26.4°C 74.4°F23.6°C 84% 0.1 mph WNW0.2 kmh WNW 1.0 mph1.6 kmh 30.03 in1016.9 mb 0.00 in0.0 mm 0.00 in/hr0.0 mm/hr 0.00 in0.0 mm
10:40 AM 80.7°F27.1°C 75.4°F24.1°C 84% 0.8 mph SSW1.3 kmh SSW 2.0 mph3.2 kmh 30.03 in1016.9 mb 0.00 in0.0 mm 0.00 in/hr0.0 mm/hr 0.00 in0.0 mm
10:50 AM 81.4°F27.4°C 75.3°F24.1°C 82% Calm Calm 2.0 mph3.2 kmh 30.03 in1016.9 mb 0.00 in0.0 mm 0.00 in/hr0.0 mm/hr 0.00 in0.0 mm
11:00 AM 81.9°F27.7°C 75.1°F23.9°C 80% 1.2 mph S1.9 kmh S 2.0 mph3.2 kmh 30.03 in1016.9 mb 0.00 in0.0 mm 0.00 in/hr0.0 mm/hr 0.00 in0.0 mm
11:10 AM 82.0°F27.8°C 75.2°F24.0°C 80% 1.5 mph S2.4 kmh S 3.0 mph4.8 kmh 30.03 in1016.9 mb 0.00 in0.0 mm 0.00 in/hr0.0 mm/hr 0.00 in0.0 mm
11:20 AM 82.0°F27.8°C 75.2°F24.0°C 80% 1.3 mph SE2.1 kmh SE 3.0 mph4.8 kmh 30.03 in1016.9 mb 0.00 in0.0 mm 0.00 in/hr0.0 mm/hr 0.00 in0.0 mm
11:30 AM 81.3°F27.4°C 75.6°F24.2°C 83% 0.2 mph SE0.3 kmh SE 1.0 mph1.6 kmh 30.03 in1016.9 mb 0.00 in0.0 mm 0.00 in/hr0.0 mm/hr 0.00 in0.0 mm
11:40 AM 81.4°F27.4°C 75.7°F24.3°C 83% 0.3 mph S0.5 kmh S -- 30.02 in1016.6 mb 0.00 in0.0 mm 0.00 in/hr0.0 mm/hr 0.00 in0.0 mm
11:50 AM 81.9°F27.7°C 75.5°F24.2°C 81% 0.3 mph SSW0.5 kmh SSW -- 30.02 in1016.6 mb 0.00 in0.0 mm 0.00 in/hr0.0 mm/hr 0.00 in0.0 mm
12:00 PM 81.7°F27.6°C 75.3°F24.1°C 81% 1.5 mph E2.4 kmh E 2.0 mph3.2 kmh 30.01 in1016.3 mb 0.00 in0.0 mm 0.00 in/hr0.0 mm/hr 0.00 in0.0 mm
12:10 PM 82.4°F28.0°C 75.6°F24.2°C 80% 2.1 mph SW3.4 kmh SW 4.0 mph6.4 kmh 30.01 in1016.3 mb 0.00 in0.0 mm 0.00 in/hr0.0 mm/hr 0.00 in0.0 mm
12:20 PM 83.6°F28.7°C 75.6°F24.2°C 77% 1.0 mph S1.6 kmh S 2.0 mph3.2 kmh 30.01 in1016.3 mb 0.00 in0.0 mm 0.00 in/hr0.0 mm/hr 0.00 in0.0 mm
12:30 PM 84.1°F28.9°C 74.5°F23.6°C 73% 1.6 mph S2.6 kmh S 3.0 mph4.8 kmh 30.00 in1015.9 mb 0.00 in0.0 mm 0.00 in/hr0.0 mm/hr 0.00 in0.0 mm
12:40 PM 84.4°F29.1°C 74.8°F23.8°C 73% 1.1 mph SE1.8 kmh SE 2.0 mph3.2 kmh 30.00 in1015.9 mb 0.00 in0.0 mm 0.00 in/hr0.0 mm/hr 0.00 in0.0 mm
12:50 PM 84.9°F29.4°C 74.8°F23.8°C 72% 1.5 mph SSW2.4 kmh SSW 2.0 mph3.2 kmh 30.00 in1015.9 mb 0.00 in0.0 mm 0.00 in/hr0.0 mm/hr 0.00 in0.0 mm
01:00 PM 85.5°F29.7°C 75.0°F23.9°C 71% 1.7 mph S2.7 kmh S 3.0 mph4.8 kmh 29.99 in1015.6 mb 0.00 in0.0 mm 0.00 in/hr0.0 mm/hr 0.00 in0.0 mm
01:10 PM 85.4°F29.7°C 74.5°F23.6°C 70% 1.4 mph S2.3 kmh S 2.0 mph3.2 kmh 29.99 in1015.6 mb 0.00 in0.0 mm 0.00 in/hr0.0 mm/hr 0.00 in0.0 mm
01:20 PM 85.7°F29.8°C 75.2°F24.0°C 71% 0.7 mph SW1.1 kmh SW -- 29.99 in1015.6 mb 0.00 in0.0 mm 0.00 in/hr0.0 mm/hr 0.00 in0.0 mm
01:30 PM 85.5°F29.7°C 75.5°F24.2°C 72% 0.7 mph SSE1.1 kmh SSE 1.0 mph1.6 kmh 29.99 in1015.6 mb 0.00 in0.0 mm 0.00 in/hr0.0 mm/hr 0.00 in0.0 mm
01:40 PM 85.2°F29.6°C 76.0°F24.4°C 74% 0.9 mph SSE1.4 kmh SSE 3.0 mph4.8 kmh 29.99 in1015.6 mb 0.00 in0.0 mm 0.00 in/hr0.0 mm/hr 0.00 in0.0 mm
01:50 PM 84.5°F29.2°C 75.7°F24.3°C 75% 0.4 mph SW0.6 kmh SW 2.0 mph3.2 kmh 30.00 in1015.9 mb 0.00 in0.0 mm 0.00 in/hr0.0 mm/hr 0.00 in0.0 mm
02:00 PM 84.3°F29.1°C 75.5°F24.2°C 75% 1.1 mph S1.8 kmh S 3.0 mph4.8 kmh 29.99 in1015.6 mb 0.00 in0.0 mm 0.00 in/hr0.0 mm/hr 0.00 in0.0 mm
02:10 PM 83.7°F28.7°C 74.9°F23.8°C 75% 2.2 mph S3.5 kmh S 3.0 mph4.8 kmh 29.99 in1015.6 mb 0.00 in0.0 mm 0.00 in/hr0.0 mm/hr 0.00 in0.0 mm
02:20 PM 83.6°F28.7°C 75.3°F24.1°C 76% 1.8 mph SE2.9 kmh SE 2.0 mph3.2 kmh 29.99 in1015.6 mb 0.00 in0.0 mm 0.00 in/hr0.0 mm/hr 0.00 in0.0 mm
02:30 PM 83.7°F28.7°C 75.3°F24.1°C 76% 1.6 mph SSW2.6 kmh SSW 3.0 mph4.8 kmh 29.99 in1015.6 mb 0.00 in0.0 mm 0.00 in/hr0.0 mm/hr 0.00 in0.0 mm
02:40 PM 83.7°F28.7°C 75.3°F24.1°C 76% 1.7 mph SSW2.7 kmh SSW 3.0 mph4.8 kmh 29.99 in1015.6 mb 0.00 in0.0 mm 0.00 in/hr0.0 mm/hr 0.00 in0.0 mm
02:50 PM 84.1°F28.9°C 74.9°F23.8°C 74% 0.9 mph SSW1.4 kmh SSW 1.0 mph1.6 kmh 29.98 in1015.2 mb 0.00 in0.0 mm 0.00 in/hr0.0 mm/hr 0.00 in0.0 mm
03:00 PM 84.8°F29.3°C 75.6°F24.2°C 74% 0.8 mph S1.3 kmh S 1.0 mph1.6 kmh 29.98 in1015.2 mb 0.00 in0.0 mm 0.00 in/hr0.0 mm/hr 0.00 in0.0 mm
03:10 PM 85.1°F29.5°C 75.4°F24.1°C 73% 1.8 mph SE2.9 kmh SE 2.0 mph3.2 kmh 29.98 in1015.2 mb 0.00 in0.0 mm 0.00 in/hr0.0 mm/hr 0.00 in0.0 mm
03:20 PM 85.1°F29.5°C 75.9°F24.4°C 74% 0.6 mph SSW1.0 kmh SSW 2.0 mph3.2 kmh 29.97 in1014.9 mb 0.00 in0.0 mm 0.00 in/hr0.0 mm/hr 0.00 in0.0 mm
03:30 PM 85.3°F29.6°C 75.7°F24.3°C 73% 1.0 mph SSW1.6 kmh SSW 2.0 mph3.2 kmh 29.97 in1014.9 mb 0.00 in0.0 mm 0.00 in/hr0.0 mm/hr 0.00 in0.0 mm
03:40 PM 85.5°F29.7°C 75.9°F24.4°C 73% 1.4 mph SSE2.3 kmh SSE 2.0 mph3.2 kmh 29.97 in1014.9 mb 0.00 in0.0 mm 0.00 in/hr0.0 mm/hr 0.00 in0.0 mm
03:50 PM 85.7°F29.8°C 75.6°F24.2°C 72% 1.3 mph S2.1 kmh S 3.0 mph4.8 kmh 29.97 in1014.9 mb 0.00 in0.0 mm 0.00 in/hr0.0 mm/hr 0.00 in0.0 mm
04:00 PM 84.9°F29.4°C 75.7°F24.3°C 74% 1.3 mph SE2.1 kmh SE 1.0 mph1.6 kmh 29.97 in1014.9 mb 0.00 in0.0 mm 0.00 in/hr0.0 mm/hr 0.00 in0.0 mm
04:10 PM 84.6°F29.2°C 75.0°F23.9°C 73% 1.5 mph S2.4 kmh S 2.0 mph3.2 kmh 29.97 in1014.9 mb 0.00 in0.0 mm 0.00 in/hr0.0 mm/hr 0.00 in0.0 mm
04:20 PM 84.1°F28.9°C 74.9°F23.8°C 74% 0.3 mph S0.5 kmh S 1.0 mph1.6 kmh 29.97 in1014.9 mb 0.00 in0.0 mm 0.00 in/hr0.0 mm/hr 0.00 in0.0 mm
04:30 PM 84.4°F29.1°C 75.2°F24.0°C 74% 1.2 mph SSE1.9 kmh SSE 2.0 mph3.2 kmh 29.97 in1014.9 mb 0.00 in0.0 mm 0.00 in/hr0.0 mm/hr 0.00 in0.0 mm
04:40 PM 84.5°F29.2°C 75.3°F24.1°C 74% 1.9 mph S3.1 kmh S 2.0 mph3.2 kmh 29.97 in1014.9 mb 0.00 in0.0 mm 0.00 in/hr0.0 mm/hr 0.00 in0.0 mm
04:50 PM 84.4°F29.1°C 75.2°F24.0°C 74% 1.2 mph SSE1.9 kmh SSE 2.0 mph3.2 kmh 29.96 in1014.6 mb 0.00 in0.0 mm 0.00 in/hr0.0 mm/hr 0.00 in0.0 mm
05:00 PM 85.1°F29.5°C 75.0°F23.9°C 72% 2.3 mph SSW3.7 kmh SSW 3.0 mph4.8 kmh 29.96 in1014.6 mb 0.00 in0.0 mm 0.00 in/hr0.0 mm/hr 0.00 in0.0 mm
05:10 PM 84.7°F29.3°C 75.1°F23.9°C 73% 2.1 mph S3.4 kmh S 2.0 mph3.2 kmh 29.96 in1014.6 mb 0.00 in0.0 mm 0.00 in/hr0.0 mm/hr 0.00 in0.0 mm
05:20 PM 84.5°F29.2°C 75.3°F24.1°C 74% 0.1 mph SSW0.2 kmh SSW 1.0 mph1.6 kmh 29.96 in1014.6 mb 0.00 in0.0 mm 0.00 in/hr0.0 mm/hr 0.00 in0.0 mm
05:30 PM 84.3°F29.1°C 75.1°F23.9°C 74% 0.2 mph S0.3 kmh S 1.0 mph1.6 kmh 29.96 in1014.6 mb 0.00 in0.0 mm 0.00 in/hr0.0 mm/hr 0.00 in0.0 mm
05:40 PM 83.7°F28.7°C 74.9°F23.8°C 75% 1.5 mph S2.4 kmh S 2.0 mph3.2 kmh 29.96 in1014.6 mb 0.00 in0.0 mm 0.00 in/hr0.0 mm/hr 0.00 in0.0 mm
05:50 PM 83.0°F28.3°C 74.7°F23.7°C 76% 0.3 mph S0.5 kmh S 1.0 mph1.6 kmh 29.96 in1014.6 mb 0.00 in0.0 mm 0.00 in/hr0.0 mm/hr 0.00 in0.0 mm
06:00 PM 82.5°F28.1°C 74.2°F23.4°C 76% 1.5 mph S2.4 kmh S 2.0 mph3.2 kmh 29.96 in1014.6 mb 0.00 in0.0 mm 0.00 in/hr0.0 mm/hr 0.00 in0.0 mm
06:10 PM 82.0°F27.8°C 74.1°F23.4°C 77% 0.6 mph SSW1.0 kmh SSW 1.0 mph1.6 kmh 29.96 in1014.6 mb 0.00 in0.0 mm 0.00 in/hr0.0 mm/hr 0.00 in0.0 mm
06:20 PM 81.5°F27.5°C 74.0°F23.3°C 78% 0.8 mph S1.3 kmh S 2.0 mph3.2 kmh 29.96 in1014.6 mb 0.00 in0.0 mm 0.00 in/hr0.0 mm/hr 0.00 in0.0 mm
06:30 PM 80.9°F27.2°C 73.8°F23.2°C 79% 1.4 mph SSW2.3 kmh SSW 2.0 mph3.2 kmh 29.96 in1014.6 mb 0.00 in0.0 mm 0.00 in/hr0.0 mm/hr 0.00 in0.0 mm
06:40 PM 80.5°F26.9°C 73.7°F23.2°C 80% 0.9 mph SSW1.4 kmh SSW 1.0 mph1.6 kmh 29.96 in1014.6 mb 0.00 in0.0 mm 0.00 in/hr0.0 mm/hr 0.00 in0.0 mm
06:50 PM 80.1°F26.7°C 73.7°F23.2°C 81% 0.6 mph S1.0 kmh S 2.0 mph3.2 kmh 29.96 in1014.6 mb 0.00 in0.0 mm 0.00 in/hr0.0 mm/hr 0.00 in0.0 mm
07:00 PM 79.6°F26.4°C 73.6°F23.1°C 82% Calm Calm -- 29.97 in1014.9 mb 0.00 in0.0 mm 0.00 in/hr0.0 mm/hr 0.00 in0.0 mm
07:10 PM 78.9°F26.1°C 73.3°F22.9°C 83% Calm Calm -- 29.97 in1014.9 mb 0.00 in0.0 mm 0.00 in/hr0.0 mm/hr 0.00 in0.0 mm
07:20 PM 78.3°F25.7°C 73.1°F22.8°C 84% Calm Calm -- 29.97 in1014.9 mb 0.00 in0.0 mm 0.00 in/hr0.0 mm/hr 0.00 in0.0 mm
07:30 PM 77.6°F25.3°C 72.7°F22.6°C 85% Calm Calm -- 29.98 in1015.2 mb 0.00 in0.0 mm 0.00 in/hr0.0 mm/hr 0.00 in0.0 mm
07:40 PM 76.8°F24.9°C 72.3°F22.4°C 86% 0.5 mph S0.8 kmh S 1.0 mph1.6 kmh 29.98 in1015.2 mb 0.00 in0.0 mm 0.00 in/hr0.0 mm/hr 0.00 in0.0 mm
07:50 PM 75.8°F24.3°C 72.0°F22.2°C 88% Calm Calm -- 29.98 in1015.2 mb 0.00 in0.0 mm 0.00 in/hr0.0 mm/hr 0.00 in0.0 mm
08:00 PM 75.1°F23.9°C 71.6°F22.0°C 89% Calm Calm -- 29.98 in1015.2 mb 0.00 in0.0 mm 0.00 in/hr0.0 mm/hr 0.00 in0.0 mm
08:10 PM 74.7°F23.7°C 71.6°F22.0°C 90% Calm Calm -- 29.99 in1015.6 mb 0.00 in0.0 mm 0.00 in/hr0.0 mm/hr 0.00 in0.0 mm
08:20 PM 74.3°F23.5°C 71.5°F21.9°C 91% Calm Calm -- 29.99 in1015.6 mb 0.00 in0.0 mm 0.00 in/hr0.0 mm/hr 0.00 in0.0 mm
08:30 PM 73.9°F23.3°C 71.1°F21.7°C 91% Calm Calm -- 30.00 in1015.9 mb 0.00 in0.0 mm 0.00 in/hr0.0 mm/hr 0.00 in0.0 mm
08:40 PM 73.6°F23.1°C 71.1°F21.7°C 92% Calm Calm -- 30.00 in1015.9 mb 0.00 in0.0 mm 0.00 in/hr0.0 mm/hr 0.00 in0.0 mm
08:50 PM 73.4°F23.0°C 70.9°F21.6°C 92% Calm Calm -- 30.00 in1015.9 mb 0.00 in0.0 mm 0.00 in/hr0.0 mm/hr 0.00 in0.0 mm
09:00 PM 73.2°F22.9°C 70.7°F21.5°C 92% Calm Calm -- 30.00 in1015.9 mb 0.00 in0.0 mm 0.00 in/hr0.0 mm/hr 0.00 in0.0 mm
09:10 PM 73.0°F22.8°C 70.9°F21.6°C 93% Calm Calm -- 30.00 in1015.9 mb 0.00 in0.0 mm 0.00 in/hr0.0 mm/hr 0.00 in0.0 mm
09:20 PM 72.9°F22.7°C 70.8°F21.6°C 93% Calm Calm -- 30.00 in1015.9 mb 0.00 in0.0 mm 0.00 in/hr0.0 mm/hr 0.00 in0.0 mm
09:30 PM 72.7°F22.6°C 70.6°F21.4°C 93% Calm Calm -- 30.00 in1015.9 mb 0.00 in0.0 mm 0.00 in/hr0.0 mm/hr 0.00 in0.0 mm
09:40 PM 72.6°F22.6°C 70.5°F21.4°C 93% Calm Calm -- 30.00 in1015.9 mb 0.00 in0.0 mm 0.00 in/hr0.0 mm/hr 0.00 in0.0 mm
09:50 PM 72.4°F22.4°C 70.6°F21.4°C 94% Calm Calm -- 30.00 in1015.9 mb 0.00 in0.0 mm 0.00 in/hr0.0 mm/hr 0.00 in0.0 mm
10:00 PM 72.3°F22.4°C 70.5°F21.4°C 94% Calm Calm -- 30.00 in1015.9 mb 0.00 in0.0 mm 0.00 in/hr0.0 mm/hr 0.00 in0.0 mm
10:10 PM 72.2°F22.3°C 70.4°F21.3°C 94% Calm Calm -- 30.00 in1015.9 mb 0.00 in0.0 mm 0.00 in/hr0.0 mm/hr 0.00 in0.0 mm
10:20 PM 72.1°F22.3°C 70.3°F21.3°C 94% Calm Calm -- 30.00 in1015.9 mb 0.00 in0.0 mm 0.00 in/hr0.0 mm/hr 0.00 in0.0 mm
10:30 PM 72.1°F22.3°C 70.3°F21.3°C 94% Calm Calm -- 30.00 in1015.9 mb 0.00 in0.0 mm 0.00 in/hr0.0 mm/hr 0.00 in0.0 mm
10:40 PM 72.1°F22.3°C 70.3°F21.3°C 94% Calm Calm -- 30.00 in1015.9 mb 0.00 in0.0 mm 0.00 in/hr0.0 mm/hr 0.00 in0.0 mm
10:50 PM 72.0°F22.2°C 70.2°F21.2°C 94% Calm Calm -- 30.00 in1015.9 mb 0.00 in0.0 mm 0.00 in/hr0.0 mm/hr 0.00 in0.0 mm
11:00 PM 72.0°F22.2°C 70.2°F21.2°C 94% Calm Calm -- 30.00 in1015.9 mb 0.00 in0.0 mm 0.00 in/hr0.0 mm/hr 0.00 in0.0 mm
11:10 PM 72.1°F22.3°C 70.3°F21.3°C 94% 0.4 mph S0.6 kmh S 1.0 mph1.6 kmh 30.00 in1015.9 mb 0.00 in0.0 mm 0.00 in/hr0.0 mm/hr 0.00 in0.0 mm
11:20 PM 72.1°F22.3°C 70.3°F21.3°C 94% 0.7 mph S1.1 kmh S 1.0 mph1.6 kmh 30.00 in1015.9 mb 0.00 in0.0 mm 0.00 in/hr0.0 mm/hr 0.00 in0.0 mm
11:30 PM 72.0°F22.2°C 70.2°F21.2°C 94% Calm Calm -- 30.00 in1015.9 mb 0.00 in0.0 mm 0.00 in/hr0.0 mm/hr 0.00 in0.0 mm
11:40 PM 71.8°F22.1°C 70.0°F21.1°C 94% Calm Calm -- 30.00 in1015.9 mb 0.00 in0.0 mm 0.00 in/hr0.0 mm/hr 0.00 in0.0 mm
11:50 PM 71.6°F22.0°C 69.8°F21.0°C 94% Calm Calm -- 30.00 in1015.9 mb 0.00 in0.0 mm 0.00 in/hr0.0 mm/hr 0.00 in0.0 mm